El Vigia, Venezuela
Current Conditions -  °F | °C
As of 5:00 AM on Saturday 01 Nov 2014 (Local Time) from SVVG Reporting Station
Broken Clouds Broken Clouds  
Wind Chill: 26°   Ceiling: 1700
Heat Index: 28°   Visibility: 6mi
Dew Point: 25°   Wind: 0mph
Humidity: 94%   Direction: NA
Pressure: 29.8"   Gusts: NA
Location:  8.63°N, 71.65°W
Report Text: SVVG 010900Z 00000KT 9999 BKN017 26/25 Q1009
Loading
Personal Weather Stations






























Interactive Weather Map
Tropical Storm Tracking
New forecast layout! Learn more

10-Day Weather Forecast

Advertisements
Track Severe Weather on mobile